ADDS METAR Data INFO
IDs: Format: Raw Decoded Include TAF

Data at: 1556 UTC 12 Dec 2017

KGZH 121553Z AUTO 33012G23KT 10SM CLR 12/00 A3010 RMK AO2 SLP193 T01220000
KGZH 121453Z AUTO 33011G18KT 10SM CLR 11/02 A3009 RMK AO2 SLP189 T01110017 53031
KGZH 121353Z AUTO 31004KT 10SM CLR 09/03 A3005 RMK AO2 SLP176 T00890033
KGZH 121253Z AUTO 00000KT 10SM CLR 08/03 A3003 RMK AO2 SLP167 T00830033
KGZH 121153Z AUTO 27005KT 10SM CLR 09/04 A3000 RMK AO2 SLP158 T00890039 10100 20033 53007
KGZH 121053Z AUTO 26004KT 10SM CLR 09/04 A2998 RMK AO2 SLP151 T00940044
KGZH 120953Z AUTO 26008KT 10SM CLR 10/05 A2998 RMK AO2 SLP150 T01000050
KGZH 120853Z AUTO 14003KT 10SM CLR 04/03 A2998 RMK AO2 SLP151 T00390028 58021
KGZH 120753Z AUTO 00000KT 10SM CLR 05/03 A3000 RMK AO2 SLP158 T00500033
KGZH 120653Z AUTO 24004KT 10SM CLR 08/05 A3002 RMK AO2 SLP165 T00780050
KGZH 120553Z AUTO 00000KT 10SM CLR 06/04 A3004 RMK AO2 SLP172 T00560039 10133 20056 401891028 58018
KGZH 120453Z AUTO 19004KT 10SM CLR 08/05 A3006 RMK AO2 SLP179 T00780050
KGZH 120353Z AUTO 18004KT 10SM CLR 08/04 A3008 RMK AO2 SLP184 T00830044
KGZH 120253Z AUTO 23003KT 10SM CLR 09/05 A3010 RMK AO2 SLP191 T00940050 53001
KGZH 120153Z AUTO 22006KT 10SM CLR 11/05 A3009 RMK AO2 SLP190 T01060050
KGZH 120053Z AUTO 22007KT 10SM CLR 12/04 A3009 RMK AO2 SLP190 T01220039
KGZH 112353Z AUTO 21006KT 10SM CLR 12/03 A3009 RMK AO2 SLP190 60000 T01220033 10189 20111 56007
KGZH 112253Z AUTO 22004KT 10SM CLR 15/03 A3010 RMK AO2 SLP191 T01500028
KGZH 112153Z AUTO 22006KT 10SM CLR 17/03 A3010 RMK AO2 SLP194 T01720033
KGZH 112053Z AUTO 22010KT 10SM CLR 18/02 A3011 RMK AO2 RAB18E28 SLP197 P0000 60000 T01830017 56024
KGZH 111953Z AUTO 23011KT 10SM CLR 18/02 A3013 RMK AO2 RAB50E53 SLP202 P0000 T01830017
KGZH 111853Z AUTO 23009KT 10SM CLR 18/02 A3015 RMK AO2 SLP211 T01830017
KGZH 111753Z AUTO 23011KT 10SM CLR 17/01 A3018 RMK AO2 SLP221 T01720011 10178 21022 58030
KGZH 111653Z AUTO 24004KT 10SM CLR 16/03 A3022 RMK AO2 SLP234 T01610028
KGZH 111553Z AUTO 25005KT 10SM CLR 13/02 A3026 RMK AO2 SLP246 T01280022
KGZH 111453Z AUTO 00000KT 10SM CLR 07/03 A3027 RMK AO2 SLP252 T00670033 58003
KGZH 111353Z AUTO 00000KT 10SM CLR 01/M01 A3028 RMK AO2 SLP253 T00061006
KGZH 111253Z AUTO 00000KT 10SM CLR M02/M03 A3028 RMK AO2 SLP255 T10221033
KGZH 111153Z AUTO 00000KT 10SM CLR M02/M04 A3028 RMK AO2 SLP255 T10221039 11006 21028 55003
KGZH 111053Z AUTO 00000KT 10SM CLR M02/M03 A3027 RMK AO2 SLP252 T10221033
KGZH 110953Z AUTO 00000KT 10SM CLR M02/M03 A3028 RMK AO2 SLP252 T10171033
KGZH 110853Z AUTO 00000KT 10SM CLR M02/M03 A3029 RMK AO2 SLP256 T10221033 56008
KGZH 110753Z AUTO 00000KT 10SM CLR M01/M03 A3030 RMK AO2 SLP259 T10111028
KGZH 110653Z AUTO 00000KT 10SM CLR M02/M03 A3029 RMK AO2 SLP258 T10171028
KGZH 110553Z AUTO 00000KT 10SM CLR M01/M02 A3031 RMK AO2 SLP266 T10061022 10039 21011 401221039 58005
KGZH 110453Z AUTO 00000KT 10SM CLR M01/M02 A3032 RMK AO2 SLP269 T10061022